sensor_id;sensor_type;location;lat;lon;timestamp;temperature;humidity
5196;DHT22;2617;51.006;12.436;2023-01-15T00:04:31;8.40;99.90
5196;DHT22;2617;51.006;12.436;2023-01-15T00:09:33;8.40;99.90
5196;DHT22;2617;51.006;12.436;2023-01-15T00:14:36;8.40;99.90
5196;DHT22;2617;51.006;12.436;2023-01-15T00:19:39;8.50;99.90
5196;DHT22;2617;51.006;12.436;2023-01-15T00:24:41;8.50;99.90
5196;DHT22;2617;51.006;12.436;2023-01-15T00:29:49;8.60;99.90
5196;DHT22;2617;51.006;12.436;2023-01-15T00:34:51;8.60;99.90
5196;DHT22;2617;51.006;12.436;2023-01-15T00:39:54;8.60;99.90
5196;DHT22;2617;51.006;12.436;2023-01-15T00:44:56;8.60;99.90
5196;DHT22;2617;51.006;12.436;2023-01-15T00:49:58;8.60;99.90
5196;DHT22;2617;51.006;12.436;2023-01-15T00:55:01;8.70;99.90
5196;DHT22;2617;51.006;12.436;2023-01-15T01:00:05;8.70;99.90
5196;DHT22;2617;51.006;12.436;2023-01-15T01:05:08;8.70;99.90
5196;DHT22;2617;51.006;12.436;2023-01-15T01:10:11;8.70;99.90
5196;DHT22;2617;51.006;12.436;2023-01-15T01:15:13;8.70;99.90
5196;DHT22;2617;51.006;12.436;2023-01-15T01:20:17;8.80;99.90
5196;DHT22;2617;51.006;12.436;2023-01-15T01:25:18;8.80;99.90
5196;DHT22;2617;51.006;12.436;2023-01-15T01:30:21;8.80;99.90
5196;DHT22;2617;51.006;12.436;2023-01-15T01:35:23;8.80;99.90
5196;DHT22;2617;51.006;12.436;2023-01-15T01:40:25;8.80;99.90
5196;DHT22;2617;51.006;12.436;2023-01-15T01:45:30;8.90;99.90
5196;DHT22;2617;51.006;12.436;2023-01-15T01:50:31;9.00;99.90
5196;DHT22;2617;51.006;12.436;2023-01-15T01:55:34;9.00;99.90
5196;DHT22;2617;51.006;12.436;2023-01-15T02:00:37;9.00;99.90
5196;DHT22;2617;51.006;12.436;2023-01-15T02:05:42;9.10;99.90
5196;DHT22;2617;51.006;12.436;2023-01-15T02:10:44;9.10;99.90
5196;DHT22;2617;51.006;12.436;2023-01-15T02:15:47;9.10;99.90
5196;DHT22;2617;51.006;12.436;2023-01-15T02:20:59;9.10;99.90
5196;DHT22;2617;51.006;12.436;2023-01-15T02:26:10;9.10;99.90
5196;DHT22;2617;51.006;12.436;2023-01-15T02:31:15;9.10;99.90
5196;DHT22;2617;51.006;12.436;2023-01-15T02:36:17;9.10;99.90
5196;DHT22;2617;51.006;12.436;2023-01-15T02:41:20;9.10;99.90
5196;DHT22;2617;51.006;12.436;2023-01-15T02:46:23;9.20;99.90
5196;DHT22;2617;51.006;12.436;2023-01-15T02:51:26;9.20;99.90
5196;DHT22;2617;51.006;12.436;2023-01-15T02:56:27;9.20;99.90
5196;DHT22;2617;51.006;12.436;2023-01-15T03:01:32;9.20;99.90
5196;DHT22;2617;51.006;12.436;2023-01-15T03:06:40;9.30;99.90
5196;DHT22;2617;51.006;12.436;2023-01-15T03:11:45;9.40;99.90
5196;DHT22;2617;51.006;12.436;2023-01-15T03:16:51;9.40;99.90
5196;DHT22;2617;51.006;12.436;2023-01-15T03:21:58;9.40;99.90
5196;DHT22;2617;51.006;12.436;2023-01-15T03:26:59;9.40;99.90
5196;DHT22;2617;51.006;12.436;2023-01-15T03:32:02;9.40;99.90
5196;DHT22;2617;51.006;12.436;2023-01-15T03:37:04;9.40;99.90
5196;DHT22;2617;51.006;12.436;2023-01-15T03:42:14;9.40;99.90
5196;DHT22;2617;51.006;12.436;2023-01-15T03:52:56;9.40;99.90
5196;DHT22;2617;51.006;12.436;2023-01-15T03:57:58;9.40;99.90
5196;DHT22;2617;51.006;12.436;2023-01-15T04:03:01;9.40;99.90
5196;DHT22;2617;51.006;12.436;2023-01-15T04:08:05;9.40;99.90
5196;DHT22;2617;51.006;12.436;2023-01-15T04:13:08;9.40;99.90
5196;DHT22;2617;51.006;12.436;2023-01-15T04:18:11;9.40;99.90
5196;DHT22;2617;51.006;12.436;2023-01-15T04:23:14;9.40;99.90
5196;DHT22;2617;51.006;12.436;2023-01-15T04:28:17;9.50;99.90
5196;DHT22;2617;51.006;12.436;2023-01-15T04:33:19;9.50;99.90
5196;DHT22;2617;51.006;12.436;2023-01-15T04:38:22;9.60;99.90
5196;DHT22;2617;51.006;12.436;2023-01-15T04:43:25;9.60;99.90
5196;DHT22;2617;51.006;12.436;2023-01-15T04:48:33;9.50;99.90
5196;DHT22;2617;51.006;12.436;2023-01-15T04:53:35;9.50;99.90
5196;DHT22;2617;51.006;12.436;2023-01-15T04:58:37;9.40;99.90
5196;DHT22;2617;51.006;12.436;2023-01-15T05:03:41;8.70;99.90
5196;DHT22;2617;51.006;12.436;2023-01-15T05:08:44;8.70;99.90
5196;DHT22;2617;51.006;12.436;2023-01-15T05:13:46;8.50;99.90
5196;DHT22;2617;51.006;12.436;2023-01-15T05:18:48;8.40;99.90
5196;DHT22;2617;51.006;12.436;2023-01-15T05:23:52;8.20;99.90
5196;DHT22;2617;51.006;12.436;2023-01-15T05:28:54;8.20;99.90
5196;DHT22;2617;51.006;12.436;2023-01-15T05:33:57;8.00;99.90
5196;DHT22;2617;51.006;12.436;2023-01-15T05:38:59;8.00;99.90
5196;DHT22;2617;51.006;12.436;2023-01-15T05:44:04;8.00;99.90
5196;DHT22;2617;51.006;12.436;2023-01-15T05:49:07;7.90;99.90
5196;DHT22;2617;51.006;12.436;2023-01-15T05:54:10;7.80;99.90
5196;DHT22;2617;51.006;12.436;2023-01-15T05:59:14;7.80;99.90
5196;DHT22;2617;51.006;12.436;2023-01-15T06:04:16;7.70;99.90
5196;DHT22;2617;51.006;12.436;2023-01-15T06:09:19;7.60;99.90
5196;DHT22;2617;51.006;12.436;2023-01-15T06:14:22;7.30;99.90
5196;DHT22;2617;51.006;12.436;2023-01-15T06:19:24;7.30;99.90
5196;DHT22;2617;51.006;12.436;2023-01-15T06:24:27;6.30;99.90
5196;DHT22;2617;51.006;12.436;2023-01-15T06:29:29;5.80;99.90
5196;DHT22;2617;51.006;12.436;2023-01-15T06:34:32;5.20;99.90
5196;DHT22;2617;51.006;12.436;2023-01-15T06:39:35;5.20;99.90
5196;DHT22;2617;51.006;12.436;2023-01-15T06:44:37;5.10;99.90
5196;DHT22;2617;51.006;12.436;2023-01-15T06:49:45;5.10;99.90
5196;DHT22;2617;51.006;12.436;2023-01-15T06:54:47;5.00;99.90
5196;DHT22;2617;51.006;12.436;2023-01-15T06:59:50;5.00;99.90
5196;DHT22;2617;51.006;12.436;2023-01-15T07:04:53;4.90;99.90
5196;DHT22;2617;51.006;12.436;2023-01-15T07:09:55;5.00;99.90
5196;DHT22;2617;51.006;12.436;2023-01-15T07:14:58;5.10;99.90
5196;DHT22;2617;51.006;12.436;2023-01-15T07:20:01;5.10;99.90
5196;DHT22;2617;51.006;12.436;2023-01-15T07:25:04;5.10;99.90
5196;DHT22;2617;51.006;12.436;2023-01-15T07:30:08;5.10;99.90
5196;DHT22;2617;51.006;12.436;2023-01-15T07:35:11;5.00;99.90
5196;DHT22;2617;51.006;12.436;2023-01-15T07:40:15;5.00;99.90
5196;DHT22;2617;51.006;12.436;2023-01-15T07:45:18;5.00;99.90
5196;DHT22;2617;51.006;12.436;2023-01-15T07:50:26;5.00;99.90
5196;DHT22;2617;51.006;12.436;2023-01-15T07:55:29;5.00;99.90
5196;DHT22;2617;51.006;12.436;2023-01-15T08:00:31;5.10;99.90
5196;DHT22;2617;51.006;12.436;2023-01-15T08:05:34;5.20;99.90
5196;DHT22;2617;51.006;12.436;2023-01-15T08:10:36;5.20;99.90
5196;DHT22;2617;51.006;12.436;2023-01-15T08:15:39;5.20;99.90
5196;DHT22;2617;51.006;12.436;2023-01-15T08:20:42;5.20;99.90
5196;DHT22;2617;51.006;12.436;2023-01-15T08:25:45;5.20;99.90
5196;DHT22;2617;51.006;12.436;2023-01-15T08:30:47;5.30;99.90
5196;DHT22;2617;51.006;12.436;2023-01-15T08:35:49;5.20;99.90
5196;DHT22;2617;51.006;12.436;2023-01-15T08:40:52;5.20;99.90
5196;DHT22;2617;51.006;12.436;2023-01-15T08:46:00;5.30;99.90
5196;DHT22;2617;51.006;12.436;2023-01-15T08:51:05;5.20;99.90
5196;DHT22;2617;51.006;12.436;2023-01-15T08:56:13;5.30;99.90
5196;DHT22;2617;51.006;12.436;2023-01-15T09:01:16;5.30;99.90
5196;DHT22;2617;51.006;12.436;2023-01-15T09:06:18;5.30;99.90
5196;DHT22;2617;51.006;12.436;2023-01-15T09:11:21;5.30;99.90
5196;DHT22;2617;51.006;12.436;2023-01-15T09:16:23;5.30;99.90
5196;DHT22;2617;51.006;12.436;2023-01-15T09:21:26;5.40;99.90
5196;DHT22;2617;51.006;12.436;2023-01-15T09:26:31;5.40;99.90
5196;DHT22;2617;51.006;12.436;2023-01-15T09:31:31;5.40;99.90
5196;DHT22;2617;51.006;12.436;2023-01-15T09:36:34;5.40;99.90
5196;DHT22;2617;51.006;12.436;2023-01-15T09:41:56;5.50;99.90
5196;DHT22;2617;51.006;12.436;2023-01-15T09:47:24;5.50;99.90
5196;DHT22;2617;51.006;12.436;2023-01-15T09:52:47;5.60;99.90
5196;DHT22;2617;51.006;12.436;2023-01-15T09:57:43;5.70;99.90
5196;DHT22;2617;51.006;12.436;2023-01-15T10:02:49;5.80;99.90
5196;DHT22;2617;51.006;12.436;2023-01-15T10:07:58;5.80;99.90
5196;DHT22;2617;51.006;12.436;2023-01-15T10:13:09;5.90;99.90
5196;DHT22;2617;51.006;12.436;2023-01-15T10:18:12;5.90;99.90
5196;DHT22;2617;51.006;12.436;2023-01-15T10:23:42;6.00;99.90
5196;DHT22;2617;51.006;12.436;2023-01-15T10:28:59;6.10;99.90
5196;DHT22;2617;51.006;12.436;2023-01-15T10:34:05;6.20;99.90
5196;DHT22;2617;51.006;12.436;2023-01-15T10:39:23;6.20;99.90
5196;DHT22;2617;51.006;12.436;2023-01-15T10:44:32;6.10;99.90
5196;DHT22;2617;51.006;12.436;2023-01-15T10:49:35;6.10;99.90
5196;DHT22;2617;51.006;12.436;2023-01-15T10:54:40;6.10;99.90
5196;DHT22;2617;51.006;12.436;2023-01-15T10:59:50;6.10;99.90
5196;DHT22;2617;51.006;12.436;2023-01-15T11:04:56;6.10;99.90
5196;DHT22;2617;51.006;12.436;2023-01-15T11:10:01;6.00;99.90
5196;DHT22;2617;51.006;12.436;2023-01-15T11:15:11;6.00;99.90
5196;DHT22;2617;51.006;12.436;2023-01-15T11:20:15;6.00;99.90
5196;DHT22;2617;51.006;12.436;2023-01-15T11:25:27;6.00;99.90
5196;DHT22;2617;51.006;12.436;2023-01-15T11:30:32;6.30;99.90
5196;DHT22;2617;51.006;12.436;2023-01-15T11:35:34;6.30;99.90
5196;DHT22;2617;51.006;12.436;2023-01-15T11:40:36;6.50;99.90
5196;DHT22;2617;51.006;12.436;2023-01-15T11:45:45;6.60;99.90
5196;DHT22;2617;51.006;12.436;2023-01-15T11:50:54;6.50;99.90
5196;DHT22;2617;51.006;12.436;2023-01-15T11:56:00;6.70;99.90
5196;DHT22;2617;51.006;12.436;2023-01-15T12:01:03;6.70;99.90
5196;DHT22;2617;51.006;12.436;2023-01-15T12:06:06;6.70;99.90
5196;DHT22;2617;51.006;12.436;2023-01-15T12:11:19;6.70;99.90
5196;DHT22;2617;51.006;12.436;2023-01-15T12:16:40;6.60;99.90
5196;DHT22;2617;51.006;12.436;2023-01-15T12:32:25;6.40;99.90
5196;DHT22;2617;51.006;12.436;2023-01-15T12:37:28;6.30;99.90
5196;DHT22;2617;51.006;12.436;2023-01-15T12:42:29;6.30;99.90
5196;DHT22;2617;51.006;12.436;2023-01-15T12:58:19;6.10;99.90
5196;DHT22;2617;51.006;12.436;2023-01-15T13:03:24;6.00;99.90
5196;DHT22;2617;51.006;12.436;2023-01-15T13:08:30;5.90;99.90
5196;DHT22;2617;51.006;12.436;2023-01-15T13:13:35;5.90;99.90
5196;DHT22;2617;51.006;12.436;2023-01-15T13:18:56;5.90;99.90
5196;DHT22;2617;51.006;12.436;2023-01-15T13:29:40;5.80;99.90
5196;DHT22;2617;51.006;12.436;2023-01-15T13:34:49;5.70;99.90
5196;DHT22;2617;51.006;12.436;2023-01-15T13:39:52;5.70;99.90
5196;DHT22;2617;51.006;12.436;2023-01-15T13:44:53;5.70;99.90
5196;DHT22;2617;51.006;12.436;2023-01-15T13:49:57;5.60;99.90
5196;DHT22;2617;51.006;12.436;2023-01-15T13:55:00;5.60;99.90
5196;DHT22;2617;51.006;12.436;2023-01-15T14:00:26;5.50;99.90
5196;DHT22;2617;51.006;12.436;2023-01-15T14:05:34;5.50;99.90
5196;DHT22;2617;51.006;12.436;2023-01-15T14:10:36;5.60;99.90
5196;DHT22;2617;51.006;12.436;2023-01-15T14:15:57;5.50;99.90
5196;DHT22;2617;51.006;12.436;2023-01-15T14:26:29;5.50;99.90
5196;DHT22;2617;51.006;12.436;2023-01-15T14:31:45;5.50;99.90
5196;DHT22;2617;51.006;12.436;2023-01-15T14:36:52;5.50;99.90
5196;DHT22;2617;51.006;12.436;2023-01-15T14:41:58;5.50;99.90
5196;DHT22;2617;51.006;12.436;2023-01-15T14:47:10;5.50;99.90
5196;DHT22;2617;51.006;12.436;2023-01-15T14:52:10;5.60;99.90
5196;DHT22;2617;51.006;12.436;2023-01-15T14:57:12;5.60;99.90
5196;DHT22;2617;51.006;12.436;2023-01-15T15:02:26;5.60;99.90
5196;DHT22;2617;51.006;12.436;2023-01-15T15:07:34;5.60;99.90
5196;DHT22;2617;51.006;12.436;2023-01-15T15:12:43;5.20;99.90
5196;DHT22;2617;51.006;12.436;2023-01-15T15:18:29;5.20;99.90
5196;DHT22;2617;51.006;12.436;2023-01-15T15:23:54;4.90;99.90
5196;DHT22;2617;51.006;12.436;2023-01-15T15:28:59;4.80;99.90
5196;DHT22;2617;51.006;12.436;2023-01-15T15:34:11;4.60;99.90
5196;DHT22;2617;51.006;12.436;2023-01-15T15:39:18;4.30;99.90
5196;DHT22;2617;51.006;12.436;2023-01-15T15:44:30;4.30;99.90
5196;DHT22;2617;51.006;12.436;2023-01-15T15:49:38;4.10;99.90
5196;DHT22;2617;51.006;12.436;2023-01-15T15:54:39;4.00;99.90
5196;DHT22;2617;51.006;12.436;2023-01-15T15:59:47;3.90;99.90
5196;DHT22;2617;51.006;12.436;2023-01-15T16:04:51;3.80;99.90
5196;DHT22;2617;51.006;12.436;2023-01-15T16:09:55;3.80;99.90
5196;DHT22;2617;51.006;12.436;2023-01-15T16:14:58;3.80;99.90
5196;DHT22;2617;51.006;12.436;2023-01-15T16:20:00;3.70;99.90
5196;DHT22;2617;51.006;12.436;2023-01-15T16:25:03;3.70;99.90
5196;DHT22;2617;51.006;12.436;2023-01-15T16:30:11;3.50;99.90
5196;DHT22;2617;51.006;12.436;2023-01-15T16:35:15;3.50;99.90
5196;DHT22;2617;51.006;12.436;2023-01-15T16:40:23;3.50;99.90
5196;DHT22;2617;51.006;12.436;2023-01-15T16:45:26;3.60;99.90
5196;DHT22;2617;51.006;12.436;2023-01-15T16:50:29;3.50;99.90
5196;DHT22;2617;51.006;12.436;2023-01-15T16:55:37;3.60;99.90
5196;DHT22;2617;51.006;12.436;2023-01-15T17:00:41;3.60;99.90
5196;DHT22;2617;51.006;12.436;2023-01-15T17:05:43;3.50;99.90
5196;DHT22;2617;51.006;12.436;2023-01-15T17:10:54;3.40;99.90
5196;DHT22;2617;51.006;12.436;2023-01-15T17:16:00;3.40;99.90
5196;DHT22;2617;51.006;12.436;2023-01-15T17:21:02;3.20;99.90
5196;DHT22;2617;51.006;12.436;2023-01-15T17:26:05;3.20;99.90
5196;DHT22;2617;51.006;12.436;2023-01-15T17:31:12;3.30;99.90
5196;DHT22;2617;51.006;12.436;2023-01-15T17:36:11;3.40;99.90
5196;DHT22;2617;51.006;12.436;2023-01-15T17:41:14;3.40;99.90
5196;DHT22;2617;51.006;12.436;2023-01-15T17:46:17;3.40;99.90
5196;DHT22;2617;51.006;12.436;2023-01-15T17:51:19;3.40;99.90
5196;DHT22;2617;51.006;12.436;2023-01-15T17:56:22;3.40;99.90
5196;DHT22;2617;51.006;12.436;2023-01-15T18:01:33;3.30;99.90
5196;DHT22;2617;51.006;12.436;2023-01-15T18:06:42;3.30;99.90
5196;DHT22;2617;51.006;12.436;2023-01-15T18:11:43;3.20;99.90
5196;DHT22;2617;51.006;12.436;2023-01-15T18:16:46;3.30;99.90
5196;DHT22;2617;51.006;12.436;2023-01-15T18:21:48;3.30;99.90
5196;DHT22;2617;51.006;12.436;2023-01-15T18:26:50;3.20;99.90
5196;DHT22;2617;51.006;12.436;2023-01-15T18:31:53;3.20;99.90
5196;DHT22;2617;51.006;12.436;2023-01-15T18:36:55;3.20;99.90
5196;DHT22;2617;51.006;12.436;2023-01-15T18:41:58;3.20;99.90
5196;DHT22;2617;51.006;12.436;2023-01-15T18:47:15;3.20;99.90
5196;DHT22;2617;51.006;12.436;2023-01-15T18:52:17;3.10;99.90
5196;DHT22;2617;51.006;12.436;2023-01-15T18:57:25;3.20;99.90
5196;DHT22;2617;51.006;12.436;2023-01-15T19:02:28;3.20;99.90
5196;DHT22;2617;51.006;12.436;2023-01-15T19:07:31;3.30;99.90
5196;DHT22;2617;51.006;12.436;2023-01-15T19:12:34;3.30;99.90
5196;DHT22;2617;51.006;12.436;2023-01-15T19:17:36;3.30;99.90
5196;DHT22;2617;51.006;12.436;2023-01-15T19:22:44;3.30;99.90
5196;DHT22;2617;51.006;12.436;2023-01-15T19:27:53;3.20;99.90
5196;DHT22;2617;51.006;12.436;2023-01-15T19:32:56;3.20;99.90
5196;DHT22;2617;51.006;12.436;2023-01-15T19:37:58;3.20;99.90
5196;DHT22;2617;51.006;12.436;2023-01-15T19:43:00;3.20;99.90
5196;DHT22;2617;51.006;12.436;2023-01-15T19:48:10;3.10;99.90
5196;DHT22;2617;51.006;12.436;2023-01-15T19:53:34;3.10;99.90
5196;DHT22;2617;51.006;12.436;2023-01-15T19:58:37;3.00;99.90
5196;DHT22;2617;51.006;12.436;2023-01-15T20:03:39;3.00;99.90
5196;DHT22;2617;51.006;12.436;2023-01-15T20:08:41;3.00;99.90
5196;DHT22;2617;51.006;12.436;2023-01-15T20:13:44;3.10;99.90
5196;DHT22;2617;51.006;12.436;2023-01-15T20:18:50;3.10;99.90
5196;DHT22;2617;51.006;12.436;2023-01-15T20:23:52;3.10;99.90
5196;DHT22;2617;51.006;12.436;2023-01-15T20:28:54;3.20;99.90
5196;DHT22;2617;51.006;12.436;2023-01-15T20:33:57;3.20;99.90
5196;DHT22;2617;51.006;12.436;2023-01-15T20:38:59;3.20;99.90
5196;DHT22;2617;51.006;12.436;2023-01-15T20:44:02;3.20;99.90
5196;DHT22;2617;51.006;12.436;2023-01-15T20:49:10;3.20;99.90
5196;DHT22;2617;51.006;12.436;2023-01-15T20:54:19;3.20;99.90
5196;DHT22;2617;51.006;12.436;2023-01-15T20:59:22;3.20;99.90
5196;DHT22;2617;51.006;12.436;2023-01-15T21:04:25;3.20;99.90
5196;DHT22;2617;51.006;12.436;2023-01-15T21:09:27;3.20;99.90
5196;DHT22;2617;51.006;12.436;2023-01-15T21:14:30;3.30;99.90
5196;DHT22;2617;51.006;12.436;2023-01-15T21:19:32;3.30;99.90
5196;DHT22;2617;51.006;12.436;2023-01-15T21:24:34;3.30;99.90
5196;DHT22;2617;51.006;12.436;2023-01-15T21:29:37;3.20;99.90
5196;DHT22;2617;51.006;12.436;2023-01-15T21:34:39;3.20;99.90
5196;DHT22;2617;51.006;12.436;2023-01-15T21:39:42;3.30;99.90
5196;DHT22;2617;51.006;12.436;2023-01-15T21:44:44;3.20;99.90
5196;DHT22;2617;51.006;12.436;2023-01-15T21:49:46;3.20;99.90
5196;DHT22;2617;51.006;12.436;2023-01-15T21:54:49;3.30;99.90
5196;DHT22;2617;51.006;12.436;2023-01-15T21:59:51;3.30;99.90
5196;DHT22;2617;51.006;12.436;2023-01-15T22:04:54;3.40;99.90
5196;DHT22;2617;51.006;12.436;2023-01-15T22:09:56;3.50;99.90
5196;DHT22;2617;51.006;12.436;2023-01-15T22:14:59;3.50;99.90
5196;DHT22;2617;51.006;12.436;2023-01-15T22:20:01;3.60;99.90
5196;DHT22;2617;51.006;12.436;2023-01-15T22:25:04;3.70;99.90
5196;DHT22;2617;51.006;12.436;2023-01-15T22:30:08;3.70;99.90
5196;DHT22;2617;51.006;12.436;2023-01-15T22:35:13;3.60;99.90
5196;DHT22;2617;51.006;12.436;2023-01-15T22:40:15;3.50;99.90
5196;DHT22;2617;51.006;12.436;2023-01-15T22:45:19;3.50;99.90
5196;DHT22;2617;51.006;12.436;2023-01-15T22:50:21;3.50;99.90
5196;DHT22;2617;51.006;12.436;2023-01-15T22:55:24;3.40;99.90
5196;DHT22;2617;51.006;12.436;2023-01-15T23:00:27;3.30;99.90
5196;DHT22;2617;51.006;12.436;2023-01-15T23:05:30;3.30;99.90
5196;DHT22;2617;51.006;12.436;2023-01-15T23:10:32;3.30;99.90
5196;DHT22;2617;51.006;12.436;2023-01-15T23:15:34;3.30;99.90
5196;DHT22;2617;51.006;12.436;2023-01-15T23:20:38;3.20;99.90
5196;DHT22;2617;51.006;12.436;2023-01-15T23:25:39;3.10;99.90
5196;DHT22;2617;51.006;12.436;2023-01-15T23:30:41;3.10;99.90
5196;DHT22;2617;51.006;12.436;2023-01-15T23:35:44;3.10;99.90
5196;DHT22;2617;51.006;12.436;2023-01-15T23:40:46;3.10;99.90
5196;DHT22;2617;51.006;12.436;2023-01-15T23:45:50;3.00;99.90
5196;DHT22;2617;51.006;12.436;2023-01-15T23:50:58;3.00;99.90
5196;DHT22;2617;51.006;12.436;2023-01-15T23:56:01;3.00;99.90
